createdAt,value
2023-05-14T00:04:01.678Z,6.80
2023-05-14T00:14:01.453Z,6.60
2023-05-14T00:24:01.597Z,7.50
2023-05-14T00:34:01.380Z,7.60
2023-05-14T00:44:01.537Z,7.20
2023-05-14T00:54:01.419Z,7.60
2023-05-14T01:04:01.487Z,6.70
2023-05-14T01:14:01.146Z,6.60
2023-05-14T01:24:01.098Z,7.00
2023-05-14T01:34:00.958Z,7.20
2023-05-14T01:44:01.766Z,6.90
2023-05-14T01:54:00.894Z,7.10
2023-05-14T02:04:00.749Z,7.40
2023-05-14T02:14:00.565Z,6.60
2023-05-14T02:24:01.191Z,6.90
2023-05-14T02:34:00.243Z,7.00
2023-05-14T02:43:59.941Z,7.20
2023-05-14T02:54:00.183Z,7.20
2023-05-14T03:03:59.630Z,7.40
2023-05-14T03:13:59.483Z,7.50
2023-05-14T03:23:59.264Z,6.30
2023-05-14T03:33:59.296Z,6.80
2023-05-14T03:43:59.117Z,6.80
2023-05-14T03:53:59.202Z,6.80
2023-05-14T04:03:58.611Z,7.00
2023-05-14T04:13:58.463Z,6.40
2023-05-14T04:23:58.022Z,6.40
2023-05-14T04:33:57.779Z,7.50
2023-05-14T04:43:57.506Z,7.10
2023-05-14T04:53:57.269Z,7.00
2023-05-14T05:03:57.027Z,6.60
2023-05-14T05:13:56.986Z,6.60
2023-05-14T05:23:56.655Z,6.50
2023-05-14T05:33:56.567Z,7.10
2023-05-14T05:43:56.435Z,7.10
2023-05-14T05:53:56.405Z,6.20
2023-05-14T06:03:56.476Z,6.60
2023-05-14T06:13:56.403Z,6.30
2023-05-14T06:23:56.236Z,5.90
2023-05-14T06:34:01.286Z,5.80
2023-05-14T06:43:56.580Z,5.60
2023-05-14T06:54:01.572Z,6.00
2023-05-14T07:04:01.161Z,5.50
2023-05-14T07:14:00.771Z,5.60
2023-05-14T07:24:00.478Z,5.10
2023-05-14T07:34:00.226Z,4.50
2023-05-14T07:43:59.753Z,4.50
2023-05-14T07:53:59.531Z,4.60
2023-05-14T08:03:59.158Z,4.70
2023-05-14T08:13:58.956Z,4.60
2023-05-14T08:24:04.151Z,5.40
2023-05-14T08:34:03.617Z,4.70
2023-05-14T08:44:03.570Z,4.60
2023-05-14T08:54:05.252Z,4.60
2023-05-14T09:04:02.698Z,4.70
2023-05-14T09:14:02.179Z,5.10
2023-05-14T09:24:08.949Z,4.80
2023-05-14T09:34:06.992Z,5.50
2023-05-14T09:44:06.880Z,5.30
2023-05-14T09:54:06.271Z,5.50
2023-05-14T10:04:06.177Z,5.10
2023-05-14T10:14:05.919Z,5.60
2023-05-14T10:24:11.271Z,5.40
2023-05-14T10:34:10.879Z,5.30
2023-05-14T10:44:10.396Z,5.40
2023-05-14T10:54:10.172Z,4.90
2023-05-14T11:04:10.894Z,5.80
2023-05-14T11:14:15.255Z,5.20
2023-05-14T11:24:21.952Z,5.30
2023-05-14T11:34:14.429Z,5.20
2023-05-14T11:44:14.047Z,5.10
2023-05-14T11:54:14.158Z,5.30
2023-05-14T12:04:19.509Z,4.80
2023-05-14T12:14:20.476Z,5.50
2023-05-14T12:24:18.596Z,5.30
2023-05-14T12:34:18.445Z,5.60
2023-05-14T12:44:23.567Z,5.10
2023-05-14T12:54:23.233Z,5.00
2023-05-14T13:04:22.869Z,4.60
2023-05-14T13:14:22.378Z,4.70
2023-05-14T13:24:22.192Z,5.00
2023-05-14T13:34:27.323Z,5.00
2023-05-14T13:44:29.173Z,5.00
2023-05-14T13:54:26.790Z,4.60
2023-05-14T14:04:26.289Z,4.70
2023-05-14T14:14:31.423Z,4.50
2023-05-14T14:24:31.281Z,4.60
2023-05-14T14:34:30.670Z,4.50
2023-05-14T14:44:30.532Z,4.30
2023-05-14T14:54:35.470Z,4.50
2023-05-14T15:04:35.121Z,4.00
2023-05-14T15:14:34.754Z,4.50
2023-05-14T15:24:34.421Z,4.30
2023-05-14T15:34:39.560Z,4.50
2023-05-14T15:44:39.214Z,4.80
2023-05-14T15:54:38.849Z,5.10
2023-05-14T16:04:38.489Z,4.60
2023-05-14T16:14:43.644Z,4.50
2023-05-14T16:24:43.438Z,4.50
2023-05-14T16:34:43.078Z,4.40
2023-05-14T16:44:42.555Z,4.70
2023-05-14T16:54:47.846Z,4.50
2023-05-14T17:04:47.538Z,4.90
2023-05-14T17:14:47.344Z,4.70
2023-05-14T17:24:46.636Z,4.40
2023-05-14T17:34:46.756Z,5.10
2023-05-14T17:44:51.921Z,4.70
2023-05-14T17:54:51.548Z,4.00
2023-05-14T18:04:51.398Z,4.80
2023-05-14T18:14:51.042Z,4.60
2023-05-14T18:24:56.080Z,4.60
2023-05-14T18:34:55.771Z,4.50
2023-05-14T18:44:57.239Z,4.30
2023-05-14T18:54:56.677Z,4.30
2023-05-14T19:04:54.724Z,4.30
2023-05-14T19:14:59.844Z,4.40
2023-05-14T19:24:59.365Z,4.00
2023-05-14T19:34:58.984Z,4.10
2023-05-14T19:45:02.018Z,4.30
2023-05-14T19:54:58.234Z,4.10
2023-05-14T20:05:03.430Z,4.10
2023-05-14T20:15:03.038Z,4.50
2023-05-14T20:25:02.624Z,4.40
2023-05-14T20:35:02.364Z,4.00
2023-05-14T20:45:01.885Z,4.40
2023-05-14T20:55:02.243Z,4.60
2023-05-14T21:05:06.602Z,4.00
2023-05-14T21:15:06.264Z,4.40
2023-05-14T21:25:05.857Z,4.70
2023-05-14T21:35:06.016Z,4.30
2023-05-14T21:45:05.806Z,4.20
2023-05-14T21:55:04.941Z,4.40
2023-05-14T22:05:04.851Z,4.50
2023-05-14T22:15:10.908Z,4.50
2023-05-14T22:25:09.518Z,5.70
2023-05-14T22:35:09.495Z,5.00
2023-05-14T22:45:09.990Z,4.50
2023-05-14T22:55:08.371Z,4.80
2023-05-14T23:05:08.386Z,5.10
2023-05-14T23:15:07.612Z,4.50
2023-05-14T23:25:12.779Z,5.50
2023-05-14T23:35:12.575Z,5.70
2023-05-14T23:45:12.008Z,5.10
2023-05-14T23:55:11.702Z,4.60
